createdAt,value
2018-12-16T00:00:39.302Z,97411.00
2018-12-16T00:03:08.462Z,97400.00
2018-12-16T00:05:37.747Z,97409.00
2018-12-16T00:08:06.911Z,97394.00
2018-12-16T00:10:36.330Z,97397.00
2018-12-16T00:13:05.698Z,97387.00
2018-12-16T00:15:34.954Z,97387.00
2018-12-16T00:18:04.321Z,97383.00
2018-12-16T00:20:33.506Z,97376.00
2018-12-16T00:23:02.779Z,97374.00
2018-12-16T00:25:32.298Z,97364.00
2018-12-16T00:28:01.491Z,97377.00
2018-12-16T00:30:30.698Z,97367.00
2018-12-16T00:32:59.869Z,97366.00
2018-12-16T00:35:29.094Z,97356.00
2018-12-16T00:37:58.266Z,97357.00
2018-12-16T00:40:27.481Z,97354.00
2018-12-16T00:42:56.786Z,97353.00
2018-12-16T00:45:25.989Z,97345.00
2018-12-16T00:47:55.166Z,97342.00
2018-12-16T00:50:24.450Z,97351.00
2018-12-16T00:52:53.634Z,97348.00
2018-12-16T00:55:22.874Z,97349.00
2018-12-16T00:57:52.034Z,97360.00
2018-12-16T01:00:21.270Z,97358.00
2018-12-16T01:02:50.778Z,97355.00
2018-12-16T01:05:19.982Z,97354.00
2018-12-16T01:07:49.254Z,97353.00
2018-12-16T01:10:18.589Z,97353.00
2018-12-16T01:12:47.866Z,97354.00
2018-12-16T01:15:17.151Z,97357.00
2018-12-16T01:17:46.412Z,97354.00
2018-12-16T01:20:15.854Z,97355.00
2018-12-16T01:22:45.190Z,97348.00
2018-12-16T01:25:14.460Z,97347.00
2018-12-16T01:27:43.654Z,97349.00
2018-12-16T01:30:12.913Z,97337.00
2018-12-16T01:32:42.271Z,97341.00
2018-12-16T01:35:12.067Z,97333.00
2018-12-16T01:37:41.383Z,97336.00
2018-12-16T01:40:10.883Z,97333.00
2018-12-16T01:42:40.163Z,97316.00
2018-12-16T01:45:09.600Z,97323.00
2018-12-16T01:47:38.790Z,97312.00
2018-12-16T01:50:08.239Z,97309.00
2018-12-16T01:52:37.522Z,97309.00
2018-12-16T01:55:09.172Z,97299.00
2018-12-16T01:57:38.472Z,97293.00
2018-12-16T02:00:10.495Z,97284.00
2018-12-16T02:02:39.810Z,97289.00
2018-12-16T02:05:09.302Z,97287.00
2018-12-16T02:07:38.643Z,97291.00
2018-12-16T02:10:08.002Z,97278.00
2018-12-16T02:12:37.307Z,97274.00
2018-12-16T02:15:06.902Z,97260.00
2018-12-16T02:17:36.114Z,97255.00
2018-12-16T02:20:06.222Z,97263.00
2018-12-16T02:22:35.427Z,97261.00
2018-12-16T02:25:08.015Z,97248.00
2018-12-16T02:29:18.715Z,97256.00
2018-12-16T02:31:47.917Z,97240.00
2018-12-16T02:34:17.129Z,97237.00
2018-12-16T02:36:46.954Z,97232.00
2018-12-16T02:39:16.268Z,97226.00
2018-12-16T02:41:46.618Z,97227.00
2018-12-16T02:44:15.906Z,97215.00
2018-12-16T02:46:45.683Z,97221.00
2018-12-16T02:49:14.923Z,97228.00
2018-12-16T02:51:44.231Z,97219.00
2018-12-16T02:54:13.418Z,97216.00
2018-12-16T02:56:42.630Z,97212.00
2018-12-16T02:59:11.912Z,97200.00
2018-12-16T03:01:45.259Z,97195.00
2018-12-16T03:04:14.491Z,97197.00
2018-12-16T03:06:43.841Z,97195.00
2018-12-16T03:09:13.203Z,97193.00
2018-12-16T03:11:42.435Z,97190.00
2018-12-16T03:14:11.797Z,97182.00
2018-12-16T03:16:41.024Z,97167.00
2018-12-16T03:19:14.212Z,97167.00
2018-12-16T03:21:43.515Z,97172.00
2018-12-16T03:24:12.787Z,97160.00
2018-12-16T03:26:42.008Z,97159.00
2018-12-16T03:29:11.186Z,97158.00
2018-12-16T03:31:40.404Z,97155.00
2018-12-16T03:34:09.666Z,97151.00
2018-12-16T03:36:38.858Z,97148.00
2018-12-16T03:39:08.683Z,97143.00
2018-12-16T03:41:38.127Z,97138.00
2018-12-16T03:44:07.490Z,97138.00
2018-12-16T03:46:36.893Z,97134.00
2018-12-16T03:49:06.086Z,97145.00
2018-12-16T03:51:35.660Z,97126.00
2018-12-16T03:54:04.903Z,97115.00
2018-12-16T03:56:34.201Z,97117.00
2018-12-16T03:59:17.718Z,97121.00
2018-12-16T04:01:52.730Z,97120.00
2018-12-16T04:04:22.058Z,97111.00
2018-12-16T04:06:51.475Z,97099.00
2018-12-16T04:09:20.859Z,97110.00
2018-12-16T04:11:50.306Z,97080.00
2018-12-16T04:14:19.671Z,97080.00
2018-12-16T04:16:48.895Z,97088.00
2018-12-16T04:19:18.189Z,97096.00
2018-12-16T04:21:48.545Z,97095.00
2018-12-16T04:24:17.750Z,97097.00
2018-12-16T04:26:46.986Z,97112.00
2018-12-16T04:29:16.206Z,97098.00
2018-12-16T04:31:45.398Z,97098.00
2018-12-16T04:34:14.678Z,97111.00
2018-12-16T04:36:43.975Z,97089.00
2018-12-16T04:39:14.254Z,97078.00
2018-12-16T04:41:43.446Z,97078.00
2018-12-16T04:44:12.720Z,97092.00
2018-12-16T04:46:43.135Z,97074.00
2018-12-16T04:49:12.553Z,97070.00
2018-12-16T04:51:41.970Z,97064.00
2018-12-16T04:54:11.181Z,97057.00
2018-12-16T04:56:40.424Z,97063.00
2018-12-16T04:59:09.679Z,97065.00
2018-12-16T05:01:39.031Z,97070.00
2018-12-16T05:04:08.275Z,97055.00
2018-12-16T05:06:37.637Z,97054.00
2018-12-16T05:09:08.698Z,97065.00
2018-12-16T05:11:37.995Z,97041.00
2018-12-16T05:14:07.459Z,97028.00
2018-12-16T05:16:36.707Z,97036.00
2018-12-16T05:19:06.141Z,97028.00
2018-12-16T05:21:38.004Z,97032.00
2018-12-16T05:24:08.570Z,97024.00
2018-12-16T05:26:37.740Z,97010.00
2018-12-16T05:29:06.935Z,97011.00
2018-12-16T05:31:36.118Z,97008.00
2018-12-16T05:34:05.514Z,97009.00
2018-12-16T05:36:34.750Z,97009.00
2018-12-16T05:39:04.998Z,97006.00
2018-12-16T05:41:34.286Z,97000.00
2018-12-16T05:44:03.559Z,96993.00
2018-12-16T05:46:32.731Z,97002.00
2018-12-16T05:49:01.926Z,97007.00
2018-12-16T05:51:31.155Z,96998.00
2018-12-16T05:54:00.378Z,97004.00
2018-12-16T05:56:29.575Z,97008.00
2018-12-16T05:58:58.784Z,97003.00
2018-12-16T06:01:27.957Z,97005.00
2018-12-16T06:03:57.163Z,96996.00
2018-12-16T06:06:26.346Z,96993.00
2018-12-16T06:08:55.557Z,96998.00
2018-12-16T06:11:24.743Z,96996.00
2018-12-16T06:13:53.991Z,96993.00
2018-12-16T06:16:23.190Z,96982.00
2018-12-16T06:18:52.566Z,96985.00
2018-12-16T06:21:21.731Z,96990.00
2018-12-16T06:23:55.569Z,96988.00
2018-12-16T06:26:22.237Z,96978.00
2018-12-16T06:28:51.483Z,96981.00
2018-12-16T06:31:20.658Z,96976.00
2018-12-16T06:33:49.838Z,96967.00
2018-12-16T06:36:19.050Z,96970.00
2018-12-16T06:38:48.273Z,96970.00
2018-12-16T06:41:17.456Z,96964.00
2018-12-16T06:43:46.652Z,96956.00
2018-12-16T06:46:15.850Z,96959.00
2018-12-16T06:48:45.059Z,96978.00
2018-12-16T06:51:14.393Z,96977.00
2018-12-16T06:53:43.578Z,96976.00
2018-12-16T06:56:12.831Z,96958.00
2018-12-16T06:58:42.050Z,96968.00
2018-12-16T07:01:11.233Z,96953.00
2018-12-16T07:03:40.419Z,96961.00
2018-12-16T07:06:09.635Z,96963.00
2018-12-16T07:08:39.870Z,96962.00
2018-12-16T07:11:09.146Z,96962.00
2018-12-16T07:13:38.395Z,96969.00
2018-12-16T07:16:07.657Z,96956.00
2018-12-16T07:18:36.892Z,96959.00
2018-12-16T07:21:06.253Z,96965.00
2018-12-16T07:23:35.457Z,96977.00
2018-12-16T07:26:04.731Z,96962.00
2018-12-16T07:28:34.057Z,96965.00
2018-12-16T07:31:03.250Z,96969.00
2018-12-16T07:33:32.502Z,96961.00
2018-12-16T07:36:01.994Z,96976.00
2018-12-16T07:38:31.188Z,96964.00
2018-12-16T07:41:00.678Z,96965.00
2018-12-16T07:43:29.865Z,96963.00
2018-12-16T07:45:59.179Z,96962.00
2018-12-16T07:48:28.779Z,96957.00
2018-12-16T07:50:58.155Z,96946.00
2018-12-16T07:53:27.384Z,96952.00
2018-12-16T07:55:56.610Z,96951.00
2018-12-16T07:58:25.883Z,96948.00
2018-12-16T08:00:55.182Z,96948.00
2018-12-16T08:03:24.476Z,96943.00
2018-12-16T08:05:53.649Z,96921.00
2018-12-16T08:08:22.854Z,96914.00
2018-12-16T08:10:52.154Z,96913.00
2018-12-16T08:13:21.453Z,96934.00
2018-12-16T08:15:50.633Z,96905.00
2018-12-16T08:18:19.838Z,96897.00
2018-12-16T08:20:49.006Z,96899.00
2018-12-16T08:23:18.264Z,96902.00
2018-12-16T08:25:47.629Z,96890.00
2018-12-16T08:28:16.832Z,96894.00
2018-12-16T08:30:46.150Z,96901.00
2018-12-16T08:33:15.557Z,96899.00
2018-12-16T08:35:44.751Z,96902.00
2018-12-16T08:38:13.953Z,96900.00
2018-12-16T08:40:43.234Z,96894.00
2018-12-16T08:43:12.512Z,96885.00
2018-12-16T08:45:41.731Z,96884.00
2018-12-16T08:48:10.929Z,96866.00
2018-12-16T08:50:40.111Z,96879.00
2018-12-16T08:53:09.442Z,96874.00
2018-12-16T08:55:38.654Z,96884.00
2018-12-16T08:58:07.850Z,96892.00
2018-12-16T09:00:37.039Z,96884.00
2018-12-16T09:03:08.231Z,96890.00
2018-12-16T09:05:38.171Z,96911.00
2018-12-16T09:08:07.399Z,96910.00
2018-12-16T09:10:36.822Z,96899.00
2018-12-16T09:13:06.067Z,96908.00
2018-12-16T09:15:35.263Z,96901.00
2018-12-16T09:18:04.590Z,96902.00
2018-12-16T09:20:33.792Z,96896.00
2018-12-16T09:23:03.090Z,96897.00
2018-12-16T09:25:32.952Z,96883.00
2018-12-16T09:28:02.174Z,96877.00
2018-12-16T09:30:31.403Z,96878.00
2018-12-16T09:33:00.568Z,96882.00
2018-12-16T09:35:29.794Z,96887.00
2018-12-16T09:37:58.959Z,96891.00
2018-12-16T09:40:28.158Z,96886.00
2018-12-16T09:42:57.438Z,96892.00
2018-12-16T09:45:26.680Z,96891.00
2018-12-16T09:47:56.107Z,96893.00
2018-12-16T09:50:25.388Z,96895.00
2018-12-16T09:52:54.684Z,96889.00
2018-12-16T09:55:23.974Z,96906.00
2018-12-16T09:57:53.171Z,96897.00
2018-12-16T10:00:22.467Z,96903.00
2018-12-16T10:02:51.638Z,96901.00
2018-12-16T10:05:20.831Z,96889.00
2018-12-16T10:07:50.077Z,96881.00
2018-12-16T10:10:19.286Z,96891.00
2018-12-16T10:12:48.478Z,96891.00
2018-12-16T10:15:17.735Z,96878.00
2018-12-16T10:17:46.930Z,96887.00
2018-12-16T10:20:16.788Z,96888.00
2018-12-16T10:22:46.038Z,96870.00
2018-12-16T10:25:15.265Z,96882.00
2018-12-16T10:27:44.438Z,96866.00
2018-12-16T10:30:13.653Z,96856.00
2018-12-16T10:32:42.927Z,96865.00
2018-12-16T10:35:12.157Z,96847.00
2018-12-16T10:37:41.355Z,96871.00
2018-12-16T10:40:11.402Z,96857.00
2018-12-16T10:42:40.596Z,96848.00
2018-12-16T10:45:10.102Z,96847.00
2018-12-16T10:47:39.356Z,96855.00
2018-12-16T10:50:09.497Z,96857.00
2018-12-16T10:52:38.739Z,96855.00
2018-12-16T10:55:08.117Z,96856.00
2018-12-16T10:57:37.366Z,96840.00
2018-12-16T11:00:12.463Z,96832.00
2018-12-16T11:02:41.821Z,96836.00
2018-12-16T11:05:11.114Z,96821.00
2018-12-16T11:07:40.355Z,96820.00
2018-12-16T11:10:09.743Z,96817.00
2018-12-16T11:12:39.467Z,96795.00
2018-12-16T11:15:08.742Z,96803.00
2018-12-16T11:17:37.946Z,96811.00
2018-12-16T11:20:07.679Z,96808.00
2018-12-16T11:22:36.957Z,96800.00
2018-12-16T11:25:09.842Z,96781.00
2018-12-16T11:27:39.039Z,96778.00
2018-12-16T11:30:08.953Z,96765.00
2018-12-16T11:32:38.118Z,96753.00
2018-12-16T11:35:07.665Z,96705.00
2018-12-16T11:37:36.926Z,96757.00
2018-12-16T11:40:07.058Z,96755.00
2018-12-16T11:42:36.271Z,96747.00
2018-12-16T11:45:06.878Z,96743.00
2018-12-16T11:47:36.095Z,96731.00
2018-12-16T11:50:05.737Z,96746.00
2018-12-16T11:52:34.975Z,96743.00
2018-12-16T11:55:04.367Z,96753.00
2018-12-16T11:57:33.625Z,96744.00
2018-12-16T12:00:02.836Z,96749.00
2018-12-16T12:02:32.879Z,96741.00
2018-12-16T12:05:02.371Z,96758.00
2018-12-16T12:07:31.578Z,96743.00
2018-12-16T12:10:00.857Z,96751.00
2018-12-16T12:12:30.187Z,96725.00
2018-12-16T12:14:59.488Z,96732.00
2018-12-16T12:17:28.720Z,96727.00
2018-12-16T12:19:57.887Z,96732.00
2018-12-16T12:22:27.172Z,96724.00
2018-12-16T12:24:56.482Z,96719.00
2018-12-16T12:27:25.688Z,96726.00
2018-12-16T12:29:54.878Z,96729.00
2018-12-16T12:32:24.074Z,96732.00
2018-12-16T12:34:53.258Z,96728.00
2018-12-16T12:37:22.570Z,96735.00
2018-12-16T12:39:51.893Z,96744.00
2018-12-16T12:42:21.190Z,96725.00
2018-12-16T12:44:50.386Z,96746.00
2018-12-16T12:47:19.674Z,96750.00
2018-12-16T12:49:49.409Z,96736.00
2018-12-16T12:52:18.607Z,96739.00
2018-12-16T12:54:47.857Z,96750.00
2018-12-16T12:57:17.082Z,96736.00
2018-12-16T12:59:46.290Z,96740.00
2018-12-16T13:02:15.774Z,96729.00
2018-12-16T13:04:44.989Z,96731.00
2018-12-16T13:07:14.274Z,96751.00
2018-12-16T13:09:44.181Z,96735.00
2018-12-16T13:12:13.527Z,96748.00
2018-12-16T13:14:42.776Z,96756.00
2018-12-16T13:17:11.987Z,96748.00
2018-12-16T13:19:41.199Z,96744.00
2018-12-16T13:22:10.486Z,96745.00
2018-12-16T13:25:55.033Z,96735.00
2018-12-16T13:28:24.221Z,96739.00
2018-12-16T13:30:53.478Z,96739.00
2018-12-16T13:33:22.683Z,96752.00
2018-12-16T13:35:51.925Z,96745.00
2018-12-16T13:38:21.158Z,96732.00
2018-12-16T13:40:50.566Z,96741.00
2018-12-16T13:43:19.758Z,96732.00
2018-12-16T13:45:49.138Z,96744.00
2018-12-16T13:48:18.461Z,96751.00
2018-12-16T13:50:47.886Z,96749.00
2018-12-16T13:53:17.151Z,96757.00
2018-12-16T13:55:46.622Z,96760.00
2018-12-16T13:58:15.870Z,96760.00
2018-12-16T14:00:45.155Z,96777.00
2018-12-16T14:03:14.382Z,96776.00
2018-12-16T14:05:46.837Z,96776.00
2018-12-16T14:08:15.046Z,96776.00
2018-12-16T14:10:45.585Z,96783.00
2018-12-16T14:13:14.939Z,96778.00
2018-12-16T14:15:44.347Z,96781.00
2018-12-16T14:18:14.449Z,96770.00
2018-12-16T14:20:43.920Z,96776.00
2018-12-16T14:23:14.273Z,96780.00
2018-12-16T14:25:48.005Z,96782.00
2018-12-16T14:28:14.798Z,96770.00
2018-12-16T14:30:44.110Z,96770.00
2018-12-16T14:33:13.307Z,96771.00
2018-12-16T14:35:42.615Z,96798.00
2018-12-16T14:38:12.128Z,96783.00
2018-12-16T14:40:41.399Z,96786.00
2018-12-16T14:43:10.609Z,96794.00
2018-12-16T14:45:39.824Z,96790.00
2018-12-16T14:48:09.112Z,96775.00
2018-12-16T14:50:38.614Z,96791.00
2018-12-16T14:53:07.810Z,96798.00
2018-12-16T14:55:37.034Z,96796.00
2018-12-16T14:58:06.528Z,96798.00
2018-12-16T15:00:35.726Z,96791.00
2018-12-16T15:03:05.407Z,96807.00
2018-12-16T15:05:34.670Z,96788.00
2018-12-16T15:08:04.033Z,96806.00
2018-12-16T15:10:33.219Z,96797.00
2018-12-16T15:13:02.419Z,96795.00
2018-12-16T15:15:31.706Z,96802.00
2018-12-16T15:18:00.914Z,96812.00
2018-12-16T15:20:30.099Z,96811.00
2018-12-16T15:22:59.509Z,96801.00
2018-12-16T15:25:28.702Z,96796.00
2018-12-16T15:27:57.901Z,96804.00
2018-12-16T15:30:27.070Z,96803.00
2018-12-16T15:32:56.326Z,96806.00
2018-12-16T15:35:25.686Z,96808.00
2018-12-16T15:37:55.011Z,96806.00
2018-12-16T15:40:24.206Z,96800.00
2018-12-16T15:42:53.423Z,96803.00
2018-12-16T15:45:22.670Z,96806.00
2018-12-16T15:47:51.898Z,96806.00
2018-12-16T15:50:21.173Z,96808.00
2018-12-16T15:52:50.410Z,96818.00
2018-12-16T15:55:19.599Z,96822.00
2018-12-16T15:57:48.795Z,96815.00
2018-12-16T16:00:17.970Z,96811.00
2018-12-16T16:02:47.190Z,96822.00
2018-12-16T16:05:16.465Z,96822.00
2018-12-16T16:07:45.714Z,96826.00
2018-12-16T16:10:15.067Z,96828.00
2018-12-16T16:12:44.331Z,96829.00
2018-12-16T16:15:13.662Z,96842.00
2018-12-16T16:17:42.886Z,96826.00
2018-12-16T16:20:12.263Z,96837.00
2018-12-16T16:22:41.463Z,96849.00
2018-12-16T16:25:10.658Z,96849.00
2018-12-16T16:27:39.929Z,96854.00
2018-12-16T16:30:09.859Z,96864.00
2018-12-16T16:32:39.355Z,96853.00
2018-12-16T16:35:08.743Z,96839.00
2018-12-16T16:37:38.523Z,96843.00
2018-12-16T16:40:08.430Z,96851.00
2018-12-16T16:42:37.710Z,96850.00
2018-12-16T16:45:07.418Z,96860.00
2018-12-16T16:47:36.644Z,96850.00
2018-12-16T16:50:06.590Z,96851.00
2018-12-16T16:52:35.839Z,96850.00
2018-12-16T16:55:05.632Z,96857.00
2018-12-16T16:57:34.814Z,96851.00
2018-12-16T17:00:04.687Z,96854.00
2018-12-16T17:02:33.943Z,96852.00
2018-12-16T17:05:03.267Z,96859.00
2018-12-16T17:07:32.538Z,96861.00
2018-12-16T17:10:01.839Z,96865.00
2018-12-16T17:12:31.034Z,96868.00
2018-12-16T17:15:00.237Z,96848.00
2018-12-16T17:17:29.430Z,96855.00
2018-12-16T17:19:58.687Z,96868.00
2018-12-16T17:22:27.909Z,96859.00
2018-12-16T17:24:57.144Z,96867.00
2018-12-16T17:27:26.326Z,96874.00
2018-12-16T17:29:55.637Z,96873.00
2018-12-16T17:32:24.855Z,96878.00
2018-12-16T17:34:54.083Z,96880.00
2018-12-16T17:37:23.346Z,96882.00
2018-12-16T17:39:52.623Z,96889.00
2018-12-16T17:42:21.808Z,96884.00
2018-12-16T17:44:51.018Z,96886.00
2018-12-16T17:47:20.207Z,96883.00
2018-12-16T17:49:49.435Z,96891.00
2018-12-16T17:52:18.818Z,96876.00
2018-12-16T17:54:48.034Z,96883.00
2018-12-16T17:57:17.274Z,96872.00
2018-12-16T17:59:46.634Z,96879.00
2018-12-16T18:02:15.878Z,96893.00
2018-12-16T18:04:45.103Z,96890.00
2018-12-16T18:07:14.298Z,96881.00
2018-12-16T18:09:43.531Z,96890.00
2018-12-16T18:12:12.798Z,96881.00
2018-12-16T18:14:42.147Z,96884.00
2018-12-16T18:17:11.349Z,96881.00
2018-12-16T18:19:40.559Z,96884.00
2018-12-16T18:22:14.038Z,96894.00
2018-12-16T18:24:41.244Z,96885.00
2018-12-16T18:27:10.452Z,96886.00
2018-12-16T18:29:46.422Z,96890.00
2018-12-16T18:32:15.617Z,96898.00
2018-12-16T18:34:44.934Z,96901.00
2018-12-16T18:37:14.239Z,96896.00
2018-12-16T18:39:43.438Z,96908.00
2018-12-16T18:42:12.798Z,96907.00
2018-12-16T18:44:42.176Z,96903.00
2018-12-16T18:47:11.350Z,96895.00
2018-12-16T18:49:40.659Z,96903.00
2018-12-16T18:52:09.930Z,96899.00
2018-12-16T18:54:39.259Z,96910.00
2018-12-16T18:57:08.450Z,96903.00
2018-12-16T18:59:37.761Z,96902.00
2018-12-16T19:02:07.036Z,96899.00
2018-12-16T19:04:36.694Z,96893.00
2018-12-16T19:07:06.100Z,96894.00
2018-12-16T19:09:35.358Z,96896.00
2018-12-16T19:12:04.863Z,96899.00
2018-12-16T19:14:34.886Z,96891.00
2018-12-16T19:17:04.186Z,96895.00
2018-12-16T19:19:33.491Z,96899.00
2018-12-16T19:22:03.054Z,96901.00
2018-12-16T19:24:32.257Z,96901.00
2018-12-16T19:27:01.862Z,96900.00
2018-12-16T19:29:31.057Z,96910.00
2018-12-16T19:32:00.330Z,96911.00
2018-12-16T19:34:29.650Z,96920.00
2018-12-16T19:36:58.842Z,96913.00
2018-12-16T19:39:28.105Z,96918.00
2018-12-16T19:41:57.449Z,96918.00
2018-12-16T19:44:26.902Z,96919.00
2018-12-16T19:46:56.346Z,96914.00
2018-12-16T19:49:25.615Z,96913.00
2018-12-16T19:51:55.183Z,96925.00
2018-12-16T19:54:24.511Z,96925.00
2018-12-16T19:56:53.696Z,96926.00
2018-12-16T19:59:22.978Z,96922.00
2018-12-16T20:01:52.266Z,96922.00
2018-12-16T20:04:22.059Z,96921.00
2018-12-16T20:06:51.315Z,96940.00
2018-12-16T20:09:20.511Z,96929.00
2018-12-16T20:11:49.688Z,96946.00
2018-12-16T20:14:18.923Z,96941.00
2018-12-16T20:16:48.135Z,96944.00
2018-12-16T20:19:17.326Z,96940.00
2018-12-16T20:21:46.555Z,96948.00
2018-12-16T20:24:16.141Z,96953.00
2018-12-16T20:26:45.443Z,96959.00
2018-12-16T20:29:14.718Z,96975.00
2018-12-16T20:31:43.978Z,96962.00
2018-12-16T20:34:13.179Z,96968.00
2018-12-16T20:36:42.387Z,96967.00
2018-12-16T20:39:11.555Z,96962.00
2018-12-16T20:41:40.882Z,96973.00
2018-12-16T20:44:10.048Z,96951.00
2018-12-16T20:46:39.230Z,96958.00
2018-12-16T20:49:08.613Z,96960.00
2018-12-16T20:51:37.821Z,96953.00
2018-12-16T20:54:07.068Z,96968.00
2018-12-16T20:56:36.284Z,96966.00
2018-12-16T20:59:05.570Z,96978.00
2018-12-16T21:01:34.784Z,96970.00
2018-12-16T21:04:04.166Z,96967.00
2018-12-16T21:06:34.267Z,96980.00
2018-12-16T21:09:04.737Z,96969.00
2018-12-16T21:11:41.424Z,96979.00
2018-12-16T21:14:16.279Z,96980.00
2018-12-16T21:16:50.941Z,96969.00
2018-12-16T21:19:20.861Z,96980.00
2018-12-16T21:21:50.159Z,96986.00
2018-12-16T21:24:19.629Z,96973.00
2018-12-16T21:26:49.162Z,96979.00
2018-12-16T21:29:18.349Z,96999.00
2018-12-16T21:31:47.554Z,96979.00
2018-12-16T21:34:16.730Z,96979.00
2018-12-16T21:36:45.933Z,96990.00
2018-12-16T21:39:15.330Z,96996.00
2018-12-16T21:41:44.538Z,96987.00
2018-12-16T21:44:13.727Z,97003.00
2018-12-16T21:46:42.911Z,97002.00
2018-12-16T21:49:12.078Z,97009.00
2018-12-16T21:51:41.275Z,97012.00
2018-12-16T21:54:10.448Z,97019.00
2018-12-16T21:56:39.643Z,97035.00
2018-12-16T21:59:08.827Z,97027.00
2018-12-16T22:01:40.818Z,97024.00
2018-12-16T22:04:09.998Z,97035.00
2018-12-16T22:06:39.338Z,97036.00
2018-12-16T22:09:09.398Z,97030.00
2018-12-16T22:11:38.598Z,97035.00
2018-12-16T22:14:07.907Z,97031.00
2018-12-16T22:16:37.106Z,97033.00
2018-12-16T22:19:06.956Z,97041.00
2018-12-16T22:21:36.141Z,97036.00
2018-12-16T22:24:06.218Z,97036.00
2018-12-16T22:26:35.430Z,97029.00
2018-12-16T22:29:05.030Z,97034.00
2018-12-16T22:31:34.235Z,97035.00
2018-12-16T22:34:03.396Z,97033.00
2018-12-16T22:36:32.651Z,96993.00
2018-12-16T22:39:01.814Z,97039.00
2018-12-16T22:41:30.998Z,97032.00
2018-12-16T22:44:00.171Z,97033.00
2018-12-16T22:46:29.728Z,97037.00
2018-12-16T22:48:58.918Z,97062.00
2018-12-16T22:51:28.239Z,97055.00
2018-12-16T22:53:57.397Z,97057.00
2018-12-16T22:56:26.619Z,97064.00
2018-12-16T22:58:55.784Z,97065.00
2018-12-16T23:01:25.216Z,97065.00
2018-12-16T23:03:55.939Z,97078.00
2018-12-16T23:06:25.295Z,97060.00
2018-12-16T23:08:54.538Z,97080.00
2018-12-16T23:11:23.727Z,97082.00
2018-12-16T23:13:52.903Z,97079.00
2018-12-16T23:16:22.355Z,97089.00
2018-12-16T23:18:51.618Z,97087.00
2018-12-16T23:21:21.026Z,97080.00
2018-12-16T23:23:50.221Z,97078.00
2018-12-16T23:33:18.674Z,97062.00
2018-12-16T23:35:48.147Z,97013.00
2018-12-16T23:38:17.430Z,97065.00
2018-12-16T23:40:46.832Z,97067.00
2018-12-16T23:43:16.086Z,97072.00
2018-12-16T23:45:49.310Z,97074.00
2018-12-16T23:48:18.722Z,97074.00
2018-12-16T23:50:48.012Z,97066.00
2018-12-16T23:53:17.332Z,97061.00
2018-12-16T23:55:46.679Z,97061.00
2018-12-16T23:58:15.975Z,97069.00
